Time;durP1;ratioP1;P1;durP2;ratioP2;P2;SDS_P1;SDS_P2;PMS_P1;PMS_P2;Temp;Humidity;BMP_temperature;BMP_pressure;BME280_temperature;BME280_humidity;BME280_pressure;Samples;Min_cycle;Max_cycle;Signal;HPM_P1;HPM_P2
2020/12/05 00:01:07;;;;;;;11.23;8.43;;;3.60;99.90;;;;;;5082392;28;20182;-87
2020/12/05 00:03:34;;;;;;;11.90;8.83;;;3.70;99.90;;;;;;5065641;28;20781;-85
2020/12/05 00:06:02;;;;;;;14.47;9.27;;;3.90;99.90;;;;;;5075661;28;20435;-86
2020/12/05 00:08:28;;;;;;;15.00;8.80;;;3.90;99.90;;;;;;5103575;28;20396;-85
2020/12/05 00:10:54;;;;;;;19.70;9.83;;;4.00;99.90;;;;;;5109434;28;20424;-85
2020/12/05 00:13:20;;;;;;;9.87;7.33;;;4.10;99.90;;;;;;5071359;28;20217;-85
2020/12/05 00:15:46;;;;;;;12.50;10.10;;;4.20;99.90;;;;;;5123242;28;20383;-85
2020/12/05 00:18:12;;;;;;;20.50;11.83;;;4.40;99.90;;;;;;5055852;28;20162;-86
2020/12/05 00:20:38;;;;;;;17.83;11.87;;;4.50;99.90;;;;;;5106301;28;20221;-85
2020/12/05 00:23:04;;;;;;;15.20;11.60;;;4.50;99.90;;;;;;5108441;28;20289;-86
2020/12/05 00:25:49;;;;;;;23.93;12.40;;;4.50;99.90;;;;;;5065194;28;20441;-84
2020/12/05 00:28:15;;;;;;;14.83;11.50;;;4.40;99.90;;;;;;5049344;28;20381;-85
2020/12/05 00:30:41;;;;;;;18.07;11.27;;;4.40;99.90;;;;;;5063555;28;20188;-86
2020/12/05 00:33:07;;;;;;;13.17;8.93;;;4.40;99.90;;;;;;5021283;28;20187;-87
2020/12/05 00:35:32;;;;;;;16.73;11.20;;;4.50;99.90;;;;;;5046956;28;20183;-86
2020/12/05 00:37:58;;;;;;;15.63;9.03;;;4.50;99.90;;;;;;5061311;28;20715;-86
2020/12/05 00:40:24;;;;;;;13.60;11.37;;;4.50;99.90;;;;;;5034198;28;20266;-85
2020/12/05 00:42:50;;;;;;;15.03;10.30;;;4.50;99.90;;;;;;5039953;28;20400;-86
2020/12/05 00:45:16;;;;;;;13.27;9.47;;;4.60;99.90;;;;;;5025255;28;20413;-86
2020/12/05 00:47:42;;;;;;;18.07;10.63;;;4.50;99.90;;;;;;5053023;28;20179;-85
2020/12/05 00:50:08;;;;;;;17.90;11.33;;;4.60;99.90;;;;;;5028113;28;20395;-84
2020/12/05 00:52:34;;;;;;;11.90;10.30;;;4.70;99.90;;;;;;5043705;28;20723;-86
2020/12/05 00:55:00;;;;;;;11.27;9.50;;;4.70;99.90;;;;;;5060890;28;20378;-86
2020/12/05 00:57:30;;;;;;;14.00;9.70;;;4.70;99.90;;;;;;5094625;28;20187;-86
2020/12/05 00:59:56;;;;;;;13.43;9.83;;;4.60;99.90;;;;;;5089593;28;20159;-85
2020/12/05 01:02:23;;;;;;;16.60;9.97;;;4.60;99.90;;;;;;5089852;28;20473;-86
2020/12/05 01:04:51;;;;;;;18.03;10.60;;;4.60;99.90;;;;;;5084492;28;20208;-86
2020/12/05 01:07:22;;;;;;;17.30;9.00;;;4.60;99.90;;;;;;5103001;28;20490;-85
2020/12/05 01:09:51;;;;;;;14.67;11.07;;;4.60;99.90;;;;;;5105090;28;20420;-84
2020/12/05 01:12:26;;;;;;;13.73;9.00;;;4.60;99.90;;;;;;5064979;28;20368;-84
2020/12/05 01:14:52;;;;;;;14.63;10.30;;;4.50;99.90;;;;;;5033573;28;20386;-83
2020/12/05 01:17:23;;;;;;;17.77;11.67;;;4.40;99.90;;;;;;5080829;28;20475;-87
2020/12/05 01:19:52;;;;;;;16.93;9.30;;;4.40;99.90;;;;;;5081219;28;20415;-86
2020/12/05 01:22:20;;;;;;;22.83;10.83;;;4.30;99.90;;;;;;5082852;28;20404;-85
2020/12/05 01:24:46;;;;;;;13.97;10.17;;;4.20;99.90;;;;;;5083123;28;20449;-85
2020/12/05 01:27:12;;;;;;;15.83;10.00;;;4.10;99.90;;;;;;5080749;28;20394;-84
2020/12/05 01:29:38;;;;;;;16.70;11.60;;;4.00;99.90;;;;;;5063932;28;20371;-84
2020/12/05 01:32:03;;;;;;;15.03;10.10;;;3.90;99.90;;;;;;5065134;28;20187;-85
2020/12/05 01:34:29;;;;;;;15.57;9.77;;;3.90;99.90;;;;;;5049267;28;20542;-85
2020/12/05 01:36:55;;;;;;;17.20;10.30;;;3.90;99.90;;;;;;5065489;28;20231;-83
2020/12/05 01:39:21;;;;;;;15.47;10.57;;;3.80;99.90;;;;;;5066343;28;20174;-84
2020/12/05 01:41:46;;;;;;;24.10;12.00;;;3.70;99.90;;;;;;5081875;28;20232;-85
2020/12/05 01:44:12;;;;;;;15.57;10.10;;;3.60;99.90;;;;;;5081033;28;20187;-87
2020/12/05 01:46:40;;;;;;;22.80;12.30;;;3.60;99.90;;;;;;5081512;28;20183;-86
2020/12/05 01:49:09;;;;;;;16.70;9.43;;;3.60;99.90;;;;;;5064305;28;20187;-84
2020/12/05 01:51:36;;;;;;;17.50;9.27;;;3.50;99.90;;;;;;5064774;28;20846;-86
2020/12/05 01:54:03;;;;;;;18.73;12.03;;;3.50;99.90;;;;;;5080500;28;20383;-84
2020/12/05 01:56:31;;;;;;;21.40;10.53;;;3.50;99.90;;;;;;5079329;28;20372;-84
2020/12/05 01:58:57;;;;;;;21.60;11.20;;;3.40;99.90;;;;;;5062188;28;20406;-85
2020/12/05 02:01:25;;;;;;;25.37;10.00;;;3.40;99.90;;;;;;5079788;28;20431;-87
2020/12/05 02:03:52;;;;;;;17.37;9.40;;;3.40;99.90;;;;;;5063708;28;20191;-87
2020/12/05 02:06:42;;;;;;;16.83;11.20;;;3.40;99.90;;;;;;5080998;28;20408;-84
2020/12/05 02:09:14;;;;;;;10.40;9.20;;;3.40;99.90;;;;;;5078964;28;20368;-87
2020/12/05 02:11:46;;;;;;;14.80;9.67;;;3.30;99.90;;;;;;5056413;28;20416;-87
2020/12/05 02:14:15;;;;;;;15.17;11.07;;;3.30;99.90;;;;;;5077532;28;20394;-86
2020/12/05 02:16:42;;;;;;;16.43;8.80;;;3.20;99.90;;;;;;5079904;28;20388;-86
2020/12/05 02:19:16;;;;;;;20.17;11.33;;;3.20;99.90;;;;;;5079038;28;20428;-85
2020/12/05 02:21:45;;;;;;;15.30;10.60;;;3.20;99.90;;;;;;5077815;28;20391;-86
2020/12/05 02:24:13;;;;;;;14.50;8.80;;;3.10;99.90;;;;;;5078126;28;20464;-85
2020/12/05 02:26:39;;;;;;;14.87;11.17;;;3.10;99.90;;;;;;5079759;28;20380;-86
2020/12/05 02:29:07;;;;;;;18.53;11.47;;;3.10;99.90;;;;;;5080992;28;20406;-86
2020/12/05 02:31:33;;;;;;;22.97;10.40;;;3.10;99.90;;;;;;5080487;28;20507;-86
2020/12/05 02:33:59;;;;;;;17.07;11.30;;;3.10;99.90;;;;;;5078683;28;20405;-85
2020/12/05 02:36:25;;;;;;;17.83;8.60;;;3.10;99.90;;;;;;5078522;28;20408;-86
2020/12/05 02:39:05;;;;;;;14.70;10.23;;;3.10;99.90;;;;;;5077945;28;20237;-86
2020/12/05 02:41:38;;;;;;;19.30;13.30;;;3.10;99.90;;;;;;5081652;28;20392;-86
2020/12/05 02:44:04;;;;;;;17.97;10.30;;;3.10;99.90;;;;;;5062824;28;20632;-85
2020/12/05 02:46:30;;;;;;;16.80;9.93;;;3.10;99.90;;;;;;5078592;28;20429;-85
2020/12/05 02:48:56;;;;;;;13.27;9.63;;;3.10;99.90;;;;;;5076977;28;20470;-86
2020/12/05 02:51:22;;;;;;;18.30;11.50;;;3.10;99.90;;;;;;5077961;28;20866;-85
2020/12/05 02:53:48;;;;;;;20.80;11.47;;;3.20;99.90;;;;;;5079636;28;20175;-86
2020/12/05 02:56:17;;;;;;;14.27;9.50;;;3.20;99.90;;;;;;5080927;28;20166;-86
2020/12/05 02:58:44;;;;;;;10.73;9.30;;;3.30;99.90;;;;;;5080955;28;20484;-86
2020/12/05 03:01:10;;;;;;;16.97;10.93;;;3.30;99.90;;;;;;5078481;28;20440;-86
2020/12/05 03:03:36;;;;;;;18.63;12.00;;;3.20;99.90;;;;;;5076210;28;20457;-85
2020/12/05 03:06:01;;;;;;;14.17;10.20;;;3.20;99.90;;;;;;5079230;28;20190;-84
2020/12/05 03:08:27;;;;;;;13.73;9.90;;;3.20;99.90;;;;;;5088700;28;20155;-86
2020/12/05 03:10:53;;;;;;;12.30;9.20;;;3.20;99.90;;;;;;5113103;28;20222;-86
2020/12/05 03:13:19;;;;;;;16.90;9.07;;;3.20;99.90;;;;;;5104132;28;20215;-86
2020/12/05 03:15:44;;;;;;;17.77;9.70;;;3.20;99.90;;;;;;5101021;28;20201;-86
2020/12/05 03:18:10;;;;;;;14.53;9.53;;;3.20;99.90;;;;;;5099364;28;20609;-86
2020/12/05 03:20:36;;;;;;;18.43;10.03;;;3.20;99.90;;;;;;5081938;28;20677;-86
2020/12/05 03:23:02;;;;;;;11.87;9.23;;;3.20;99.90;;;;;;5101925;28;20186;-86
2020/12/05 03:25:28;;;;;;;14.73;10.47;;;3.20;99.90;;;;;;5084701;28;20151;-86
2020/12/05 03:27:53;;;;;;;11.60;9.77;;;2.90;99.90;;;;;;5084041;28;20392;-86
2020/12/05 03:30:19;;;;;;;12.37;9.10;;;3.10;99.90;;;;;;5100438;28;20513;-85
2020/12/05 03:32:46;;;;;;;15.70;9.43;;;3.10;99.90;;;;;;5100773;28;20179;-86
2020/12/05 03:35:11;;;;;;;16.60;9.00;;;3.20;99.90;;;;;;5100771;28;20159;-85
2020/12/05 03:37:37;;;;;;;18.97;10.07;;;3.10;99.90;;;;;;5101144;28;20376;-85
2020/12/05 03:40:06;;;;;;;14.50;13.00;;;3.10;99.90;;;;;;5102842;28;20205;-86
2020/12/05 03:42:31;;;;;;;13.33;9.00;;;3.00;99.90;;;;;;5103078;28;20166;-86
2020/12/05 03:44:57;;;;;;;13.47;9.93;;;2.90;99.90;;;;;;5064331;28;20467;-84
2020/12/05 03:47:23;;;;;;;12.00;8.17;;;2.90;99.90;;;;;;5101045;28;20603;-85
2020/12/05 03:49:49;;;;;;;18.97;10.23;;;2.80;99.90;;;;;;5102911;28;20170;-85
2020/12/05 03:52:16;;;;;;;13.37;9.60;;;2.70;99.90;;;;;;5107377;28;20526;-86
2020/12/05 03:54:42;;;;;;;17.23;9.93;;;2.70;99.90;;;;;;5108396;28;20229;-84
2020/12/05 03:57:08;;;;;;;12.87;9.53;;;2.40;99.90;;;;;;5106137;28;20407;-85
2020/12/05 03:59:34;;;;;;;22.20;12.23;;;2.30;99.90;;;;;;5104835;28;20393;-84
2020/12/05 04:02:00;;;;;;;13.87;9.17;;;1.90;99.90;;;;;;5103241;28;20186;-86
2020/12/05 04:04:26;;;;;;;18.00;10.70;;;1.80;99.90;;;;;;5106084;28;20191;-86
2020/12/05 04:06:51;;;;;;;13.60;9.87;;;1.90;99.90;;;;;;5106404;28;20424;-86
2020/12/05 04:09:17;;;;;;;16.13;9.70;;;1.70;99.90;;;;;;5104985;28;20163;-86
2020/12/05 04:11:43;;;;;;;15.50;9.43;;;1.60;99.90;;;;;;5084804;28;20222;-86
2020/12/05 04:14:10;;;;;;;13.20;7.83;;;1.50;99.90;;;;;;5084090;28;20186;-85
2020/12/05 04:16:37;;;;;;;12.67;8.97;;;1.30;99.90;;;;;;5085364;28;20197;-85
2020/12/05 04:19:03;;;;;;;14.93;9.40;;;1.10;99.90;;;;;;5104085;28;20421;-84
2020/12/05 04:21:29;;;;;;;12.40;8.63;;;1.00;99.90;;;;;;5106073;28;20393;-85
2020/12/05 04:23:55;;;;;;;11.93;8.13;;;1.00;99.90;;;;;;5105183;28;20475;-85
2020/12/05 04:26:23;;;;;;;12.63;7.33;;;0.90;99.90;;;;;;5103938;28;20186;-86
2020/12/05 04:28:49;;;;;;;13.10;9.03;;;0.80;99.90;;;;;;5103814;28;20166;-86
2020/12/05 04:31:15;;;;;;;13.10;8.50;;;0.80;99.90;;;;;;5088013;28;20489;-86
2020/12/05 04:33:41;;;;;;;14.03;9.03;;;0.60;99.90;;;;;;5107209;28;20403;-85
2020/12/05 04:36:07;;;;;;;12.77;8.80;;;0.70;99.90;;;;;;5109262;28;20401;-86
2020/12/05 04:38:34;;;;;;;13.63;10.10;;;0.80;99.90;;;;;;5106074;28;20391;-86
2020/12/05 04:41:01;;;;;;;10.10;7.87;;;0.90;99.90;;;;;;5105017;28;20198;-85
2020/12/05 04:43:27;;;;;;;11.83;7.43;;;0.60;99.90;;;;;;5103005;28;20447;-85
2020/12/05 04:45:54;;;;;;;10.47;7.27;;;0.60;99.90;;;;;;5099140;28;20425;-85
2020/12/05 04:48:20;;;;;;;10.50;8.43;;;0.70;99.90;;;;;;5075302;28;20413;-86
2020/12/05 04:50:47;;;;;;;12.03;9.53;;;0.70;99.90;;;;;;5100950;28;20440;-85
2020/12/05 04:53:18;;;;;;;12.30;7.30;;;0.60;99.90;;;;;;5102099;28;20410;-83
2020/12/05 04:55:44;;;;;;;14.40;9.90;;;0.80;99.90;;;;;;5100605;28;20401;-83
2020/12/05 04:58:24;;;;;;;21.03;10.97;;;1.10;99.90;;;;;;5102718;28;20372;-83
2020/12/05 05:00:57;;;;;;;13.47;8.07;;;1.20;99.90;;;;;;5061964;28;20195;-84
2020/12/05 05:03:25;;;;;;;11.73;7.93;;;1.40;99.90;;;;;;5043183;28;20454;-84
2020/12/05 05:05:54;;;;;;;16.43;9.80;;;1.50;99.90;;;;;;5023235;28;20419;-84
2020/12/05 05:08:23;;;;;;;11.63;7.73;;;1.50;99.90;;;;;;5040113;28;20478;-84
2020/12/05 05:11:04;;;;;;;16.17;9.47;;;1.40;99.90;;;;;;5024736;28;20430;-82
2020/12/05 05:13:30;;;;;;;20.40;11.70;;;1.50;99.90;;;;;;5041736;28;20396;-84
2020/12/05 05:15:56;;;;;;;16.20;8.90;;;1.60;99.90;;;;;;5039807;28;20585;-85
2020/12/05 05:18:23;;;;;;;10.60;8.43;;;1.60;99.90;;;;;;5039690;28;20207;-85
2020/12/05 05:20:49;;;;;;;12.93;8.03;;;1.50;99.90;;;;;;5060910;28;20442;-85
2020/12/05 05:23:18;;;;;;;11.97;10.70;;;1.50;99.90;;;;;;5063160;28;20517;-85
2020/12/05 05:25:57;;;;;;;14.50;8.03;;;1.10;99.90;;;;;;5064890;28;20565;-85
2020/12/05 05:28:29;;;;;;;12.00;8.73;;;1.00;99.90;;;;;;5061219;28;20485;-85
2020/12/05 05:31:02;;;;;;;13.83;9.40;;;1.00;99.90;;;;;;5068653;28;20405;-85
2020/12/05 05:33:37;;;;;;;7.87;6.47;;;1.00;99.90;;;;;;5095598;28;20427;-85
2020/12/05 05:36:15;;;;;;;17.73;9.23;;;1.10;99.90;;;;;;5113459;28;20399;-85
2020/12/05 05:38:43;;;;;;;17.03;8.60;;;1.00;99.90;;;;;;5114475;28;20396;-84
2020/12/05 05:41:19;;;;;;;15.93;11.50;;;1.20;99.90;;;;;;5102318;28;20414;-84
2020/12/05 05:44:03;;;;;;;12.83;8.93;;;1.50;99.90;;;;;;5100837;28;20460;-83
2020/12/05 05:46:32;;;;;;;11.73;8.70;;;1.50;99.90;;;;;;5100229;28;20389;-84
2020/12/05 05:49:00;;;;;;;9.67;7.30;;;1.00;99.90;;;;;;5102316;28;20367;-83
2020/12/05 05:51:46;;;;;;;11.07;8.03;;;1.10;99.90;;;;;;5100864;28;20397;-83
2020/12/05 05:54:15;;;;;;;9.07;6.60;;;1.30;99.90;;;;;;5101255;28;20829;-83
2020/12/05 05:56:59;;;;;;;23.23;8.80;;;1.30;99.90;;;;;;5099949;28;20554;-83
2020/12/05 05:59:27;;;;;;;16.80;10.07;;;1.20;99.90;;;;;;5099868;28;20396;-83
2020/12/05 06:01:54;;;;;;;16.80;10.53;;;1.40;99.90;;;;;;5081534;28;20404;-83
2020/12/05 06:04:30;;;;;;;12.20;9.03;;;1.20;99.90;;;;;;5085123;28;20843;-85
2020/12/05 06:06:57;;;;;;;14.17;8.10;;;1.20;99.90;;;;;;5083101;28;20404;-84
2020/12/05 06:09:27;;;;;;;12.90;9.20;;;1.20;99.90;;;;;;5100397;28;20441;-84
2020/12/05 06:11:57;;;;;;;19.43;10.60;;;1.10;99.90;;;;;;5101263;28;20476;-85
2020/12/05 06:14:23;;;;;;;11.27;8.60;;;1.00;99.90;;;;;;5105095;28;20396;-84
2020/12/05 06:16:52;;;;;;;17.23;10.47;;;1.20;99.90;;;;;;5106781;28;20397;-84
2020/12/05 06:19:19;;;;;;;16.60;10.57;;;1.20;99.90;;;;;;5087310;28;20468;-85
2020/12/05 06:21:50;;;;;;;14.10;8.77;;;1.00;99.90;;;;;;5085072;28;20423;-85
2020/12/05 06:24:23;;;;;;;11.63;8.10;;;1.00;99.90;;;;;;5084246;28;20431;-85
2020/12/05 06:26:53;;;;;;;14.00;9.77;;;1.00;99.90;;;;;;5104361;28;20393;-85
2020/12/05 06:29:20;;;;;;;15.27;9.90;;;1.00;99.90;;;;;;5104813;28;20389;-83
2020/12/05 06:31:46;;;;;;;13.00;9.97;;;0.90;99.90;;;;;;5105973;28;20367;-83
2020/12/05 06:34:33;;;;;;;9.33;8.00;;;1.00;99.90;;;;;;5100991;28;20537;-85
2020/12/05 06:36:59;;;;;;;12.70;9.53;;;1.00;99.90;;;;;;5085821;28;20393;-85
2020/12/05 06:39:25;;;;;;;12.50;9.07;;;1.10;99.90;;;;;;5070884;28;20427;-83
2020/12/05 06:41:52;;;;;;;11.67;9.63;;;1.10;99.90;;;;;;5087159;28;20767;-84
2020/12/05 06:44:22;;;;;;;13.37;10.47;;;0.90;99.90;;;;;;5084319;28;20260;-85
2020/12/05 06:46:52;;;;;;;16.37;9.10;;;0.90;99.90;;;;;;5066316;28;20411;-84
2020/12/05 06:49:42;;;;;;;16.17;10.07;;;1.00;99.90;;;;;;5102275;28;20405;-83
2020/12/05 06:52:36;;;;;;;13.33;6.93;;;0.90;99.90;;;;;;5101209;28;20359;-84
2020/12/05 06:55:06;;;;;;;10.63;9.00;;;1.00;99.90;;;;;;5104539;28;20464;-84
2020/12/05 06:57:33;;;;;;;18.63;10.20;;;1.10;99.90;;;;;;5105087;28;20397;-86
2020/12/05 07:00:30;;;;;;;12.63;9.80;;;1.10;99.90;;;;;;5048904;28;20503;-86
2020/12/05 07:02:59;;;;;;;14.73;10.83;;;0.90;99.90;;;;;;5064410;28;20508;-85
2020/12/05 07:05:43;;;;;;;10.40;8.30;;;0.80;99.90;;;;;;5103426;28;20388;-86
2020/12/05 07:08:27;;;;;;;14.40;8.30;;;0.80;99.90;;;;;;5087240;28;20389;-86
2020/12/05 07:11:01;;;;;;;14.03;8.87;;;0.80;99.90;;;;;;5092434;28;20532;-86
2020/12/05 07:13:36;;;;;;;16.57;8.20;;;0.80;99.90;;;;;;5066389;28;20383;-85
2020/12/05 07:16:13;;;;;;;12.63;8.50;;;0.50;99.90;;;;;;5087229;28;20417;-83
2020/12/05 07:18:40;;;;;;;12.00;9.17;;;0.60;99.90;;;;;;5097490;28;20379;-85
2020/12/05 07:21:07;;;;;;;17.03;10.20;;;0.70;99.90;;;;;;5097475;28;20460;-86
2020/12/05 07:23:34;;;;;;;15.97;10.60;;;0.70;99.90;;;;;;5097576;28;20445;-85
2020/12/05 07:26:00;;;;;;;16.80;10.80;;;1.00;99.90;;;;;;5098261;28;20432;-85
2020/12/05 07:28:27;;;;;;;23.00;14.93;;;1.10;99.90;;;;;;5087970;28;20389;-85
2020/12/05 07:30:53;;;;;;;16.83;9.37;;;0.90;99.90;;;;;;5066973;28;20481;-84
2020/12/05 07:33:25;;;;;;;19.37;11.80;;;0.90;99.90;;;;;;5085382;28;20443;-83
2020/12/05 07:36:06;;;;;;;19.00;11.70;;;0.90;99.90;;;;;;5054687;28;20828;-84
2020/12/05 07:38:35;;;;;;;18.20;10.67;;;0.90;99.90;;;;;;5048039;28;20399;-84
2020/12/05 07:41:12;;;;;;;15.47;10.77;;;0.90;99.90;;;;;;5043804;28;20400;-84
2020/12/05 07:43:38;;;;;;;15.40;12.37;;;0.90;99.90;;;;;;5044005;28;20870;-85
2020/12/05 07:46:08;;;;;;;19.70;11.27;;;0.90;99.90;;;;;;5045142;28;20899;-83
2020/12/05 07:48:35;;;;;;;17.30;10.17;;;0.90;99.90;;;;;;5048051;28;20914;-85
2020/12/05 07:51:02;;;;;;;15.30;9.73;;;1.00;99.90;;;;;;5087455;28;20416;-85
2020/12/05 07:53:33;;;;;;;16.40;10.77;;;1.20;99.90;;;;;;5086306;28;20377;-85
2020/12/05 07:56:19;;;;;;;31.87;12.47;;;1.20;99.90;;;;;;5084988;28;20398;-85
2020/12/05 07:58:47;;;;;;;22.57;10.93;;;1.50;99.90;;;;;;5085816;28;20423;-84
2020/12/05 08:01:47;;;;;;;24.20;11.10;;;1.50;99.90;;;;;;5088328;28;20398;-85
2020/12/05 08:04:41;;;;;;;17.73;11.40;;;1.80;99.90;;;;;;5070845;28;20662;-86
2020/12/05 08:07:23;;;;;;;18.20;10.67;;;1.90;99.90;;;;;;5085841;28;20885;-85
2020/12/05 08:09:51;;;;;;;13.07;8.70;;;1.80;99.90;;;;;;5085249;28;20413;-85
2020/12/05 08:12:31;;;;;;;14.97;9.53;;;1.60;99.90;;;;;;5087501;28;20717;-85
2020/12/05 08:14:57;;;;;;;11.57;8.67;;;1.60;99.90;;;;;;5107806;28;20401;-85
2020/12/05 08:17:24;;;;;;;19.30;12.40;;;1.50;99.90;;;;;;5110078;28;20371;-85
2020/12/05 08:19:49;;;;;;;15.37;10.73;;;1.50;99.90;;;;;;5109067;28;20222;-85
2020/12/05 08:22:16;;;;;;;19.77;11.50;;;1.40;99.90;;;;;;5074310;28;20420;-86
2020/12/05 08:24:51;;;;;;;18.20;9.73;;;1.60;99.90;;;;;;5111851;28;20455;-85
2020/12/05 08:27:18;;;;;;;15.93;11.30;;;1.80;99.90;;;;;;5110397;28;20390;-85
2020/12/05 08:29:47;;;;;;;16.73;9.73;;;1.80;99.90;;;;;;5093793;28;20386;-84
2020/12/05 08:32:20;;;;;;;16.70;9.23;;;1.70;99.90;;;;;;5112468;28;20411;-85
2020/12/05 08:34:47;;;;;;;15.10;9.30;;;1.80;99.90;;;;;;5111196;28;20490;-84
2020/12/05 08:37:28;;;;;;;25.37;11.87;;;1.70;99.90;;;;;;5107736;28;20428;-85
2020/12/05 08:39:54;;;;;;;19.27;14.43;;;1.80;99.90;;;;;;5108769;28;20432;-85
2020/12/05 08:42:24;;;;;;;17.70;9.83;;;1.70;99.90;;;;;;5057764;28;20370;-85
2020/12/05 08:44:50;;;;;;;12.20;8.13;;;1.60;99.90;;;;;;5106038;28;20411;-85
2020/12/05 08:47:16;;;;;;;24.53;12.87;;;1.60;99.90;;;;;;5106610;28;20367;-84
2020/12/05 08:49:44;;;;;;;14.57;10.67;;;1.70;99.90;;;;;;5103815;28;20828;-85
2020/12/05 08:52:11;;;;;;;18.80;10.93;;;1.60;99.90;;;;;;5103330;28;20250;-85
2020/12/05 08:54:48;;;;;;;19.23;9.70;;;1.70;99.90;;;;;;5084677;28;20405;-85
2020/12/05 08:57:15;;;;;;;22.67;11.67;;;1.70;99.90;;;;;;5102290;28;20761;-85
2020/12/05 08:59:41;;;;;;;15.00;9.40;;;1.70;99.90;;;;;;5083485;28;20449;-85
2020/12/05 09:02:08;;;;;;;22.13;11.27;;;1.60;99.90;;;;;;5084985;28;20405;-85
2020/12/05 09:04:35;;;;;;;20.90;12.00;;;1.70;99.90;;;;;;5083998;28;20480;-85
2020/12/05 09:07:12;;;;;;;21.17;13.37;;;1.80;99.90;;;;;;5043051;28;20566;-84
2020/12/05 09:09:42;;;;;;;24.90;14.17;;;1.90;99.90;;;;;;5064030;28;20398;-85
2020/12/05 09:12:12;;;;;;;19.03;10.20;;;1.90;99.90;;;;;;5063987;28;20497;-86
2020/12/05 09:14:39;;;;;;;17.83;11.00;;;1.90;99.90;;;;;;5065199;28;20419;-84
2020/12/05 09:17:29;;;;;;;46.63;11.33;;;1.80;99.90;;;;;;5068034;28;20403;-85
2020/12/05 09:20:15;;;;;;;16.47;10.83;;;1.80;99.90;;;;;;5066012;28;20442;-86
2020/12/05 09:22:53;;;;;;;18.83;11.97;;;1.80;99.90;;;;;;5057198;28;20381;-84
2020/12/05 09:25:33;;;;;;;20.23;12.80;;;1.80;99.90;;;;;;5056784;28;20485;-86
2020/12/05 09:28:00;;;;;;;20.37;10.33;;;1.90;99.90;;;;;;5076190;28;20464;-84
2020/12/05 09:30:28;;;;;;;22.50;13.03;;;1.90;99.90;;;;;;5075682;28;20382;-85
2020/12/05 09:32:57;;;;;;;25.73;14.27;;;1.90;99.90;;;;;;5057835;28;20381;-82
2020/12/05 09:35:25;;;;;;;19.30;10.40;;;1.90;99.90;;;;;;5039788;28;20393;-82
2020/12/05 09:37:51;;;;;;;24.73;11.17;;;2.00;99.90;;;;;;5059520;28;20409;-83
2020/12/05 09:40:20;;;;;;;14.93;11.20;;;2.10;99.90;;;;;;5099581;28;20395;-84
2020/12/05 09:42:47;;;;;;;20.43;14.33;;;1.90;99.90;;;;;;5082723;28;20409;-85
2020/12/05 09:45:21;;;;;;;17.23;10.10;;;2.10;99.90;;;;;;5067876;28;20479;-82
2020/12/05 09:47:47;;;;;;;13.20;10.33;;;2.10;99.90;;;;;;5083473;28;20364;-83
2020/12/05 09:50:14;;;;;;;23.60;11.00;;;2.10;99.90;;;;;;5097248;28;20424;-83
2020/12/05 09:52:40;;;;;;;18.67;12.50;;;2.10;99.90;;;;;;5083693;28;20237;-83
2020/12/05 09:55:07;;;;;;;19.97;11.30;;;2.40;99.90;;;;;;5100031;28;20443;-82
2020/12/05 09:57:35;;;;;;;20.13;13.03;;;2.20;99.90;;;;;;5070354;28;20404;-82
2020/12/05 10:00:03;;;;;;;18.53;12.03;;;2.30;99.90;;;;;;5090863;28;20800;-80
2020/12/05 10:02:32;;;;;;;23.90;14.70;;;2.40;99.90;;;;;;5076038;28;20400;-84
2020/12/05 10:04:58;;;;;;;10.83;8.70;;;2.40;99.90;;;;;;5015645;28;20461;-81
2020/12/05 10:07:24;;;;;;;23.27;14.10;;;2.50;99.90;;;;;;5049320;28;20390;-82
2020/12/05 10:09:52;;;;;;;18.97;10.67;;;2.40;99.90;;;;;;5036989;28;20473;-81
2020/12/05 10:12:19;;;;;;;16.93;10.07;;;2.30;99.90;;;;;;5018907;28;20170;-82
2020/12/05 10:14:45;;;;;;;27.57;12.30;;;2.40;99.90;;;;;;5034696;28;20418;-82
2020/12/05 10:17:11;;;;;;;15.57;10.43;;;2.40;99.90;;;;;;5009057;28;20461;-82
2020/12/05 10:19:38;;;;;;;14.73;10.20;;;2.20;99.90;;;;;;5029456;28;20220;-82
2020/12/05 10:22:04;;;;;;;19.40;11.13;;;2.20;99.90;;;;;;5034811;28;20404;-82
2020/12/05 10:24:32;;;;;;;24.63;14.80;;;2.50;99.90;;;;;;5015563;28;20438;-82
2020/12/05 10:26:58;;;;;;;14.97;10.20;;;2.60;99.90;;;;;;5034909;28;20458;-80
2020/12/05 10:29:24;;;;;;;15.80;9.30;;;2.70;99.90;;;;;;5032496;28;20383;-83
2020/12/05 10:31:53;;;;;;;14.70;10.50;;;2.50;99.90;;;;;;5003876;28;20398;-81
2020/12/05 10:34:20;;;;;;;14.40;10.43;;;2.70;99.90;;;;;;5012270;28;20512;-84
2020/12/05 10:36:47;;;;;;;24.50;10.07;;;2.80;99.90;;;;;;5063326;28;20411;-82
2020/12/05 10:39:13;;;;;;;18.13;11.77;;;2.60;99.90;;;;;;5085931;28;20398;-84
2020/12/05 10:41:40;;;;;;;14.33;11.40;;;2.60;99.90;;;;;;5082909;28;20455;-82
2020/12/05 10:44:10;;;;;;;23.37;11.20;;;2.60;99.90;;;;;;5064397;28;20416;-82
2020/12/05 10:46:45;;;;;;;18.63;10.17;;;2.50;99.90;;;;;;5064584;28;20413;-82
2020/12/05 10:49:11;;;;;;;21.70;11.40;;;2.60;99.90;;;;;;5045052;28;20428;-82
2020/12/05 10:51:38;;;;;;;16.47;11.17;;;2.70;99.90;;;;;;5079311;28;20909;-82
2020/12/05 10:54:05;;;;;;;17.60;13.53;;;2.80;99.90;;;;;;5060997;28;20376;-82
2020/12/05 10:56:35;;;;;;;13.70;10.90;;;2.70;99.90;;;;;;5044310;28;20789;-82
2020/12/05 10:59:01;;;;;;;18.47;10.43;;;2.60;99.90;;;;;;5060150;28;20737;-80
2020/12/05 11:01:30;;;;;;;25.70;13.10;;;2.70;99.90;;;;;;5060265;28;20369;-83
2020/12/05 11:04:01;;;;;;;19.57;12.47;;;2.90;99.90;;;;;;5060208;28;20507;-80
2020/12/05 11:06:27;;;;;;;20.40;11.60;;;2.90;99.90;;;;;;5078506;28;20494;-81
2020/12/05 11:08:55;;;;;;;16.30;10.27;;;2.80;99.90;;;;;;5060914;28;20376;-81
2020/12/05 11:11:21;;;;;;;18.53;11.37;;;3.00;99.90;;;;;;5072337;28;20435;-82
2020/12/05 11:13:47;;;;;;;23.10;12.60;;;3.00;99.90;;;;;;5080406;28;20401;-83
2020/12/05 11:16:21;;;;;;;23.43;11.63;;;3.00;99.90;;;;;;5098698;28;20400;-83
2020/12/05 11:18:51;;;;;;;21.53;11.27;;;2.90;99.90;;;;;;5074808;28;20398;-83
2020/12/05 11:21:17;;;;;;;19.57;12.60;;;2.90;99.90;;;;;;5080108;28;20424;-82
2020/12/05 11:23:43;;;;;;;21.37;12.10;;;2.90;99.90;;;;;;5039186;28;20436;-80
2020/12/05 11:26:18;;;;;;;19.87;12.73;;;2.90;99.90;;;;;;5056732;28;20407;-82
2020/12/05 11:28:43;;;;;;;23.13;13.50;;;2.90;99.90;;;;;;5025763;28;20176;-82
2020/12/05 11:31:12;;;;;;;19.93;12.07;;;2.80;99.90;;;;;;5056746;28;20395;-84
2020/12/05 11:33:38;;;;;;;22.40;12.17;;;2.90;99.90;;;;;;5023056;28;20191;-83
2020/12/05 11:36:03;;;;;;;17.70;11.40;;;3.10;99.90;;;;;;5040479;28;20451;-83
2020/12/05 11:38:32;;;;;;;22.30;12.67;;;2.90;99.90;;;;;;5042148;28;20223;-82
2020/12/05 11:41:01;;;;;;;20.63;12.07;;;2.80;99.90;;;;;;5021273;28;20201;-80
2020/12/05 11:43:27;;;;;;;16.80;12.90;;;2.90;99.90;;;;;;5008696;28;20486;-82
2020/12/05 11:45:54;;;;;;;17.90;11.90;;;2.90;99.90;;;;;;5026083;28;20740;-83
2020/12/05 11:48:19;;;;;;;14.20;11.00;;;2.80;99.90;;;;;;5021332;28;20181;-80
2020/12/05 11:50:45;;;;;;;15.27;11.70;;;2.90;99.90;;;;;;4999562;28;20405;-81
2020/12/05 11:53:14;;;;;;;20.50;11.67;;;2.90;99.90;;;;;;4983165;28;20641;-81
2020/12/05 11:55:40;;;;;;;20.23;11.33;;;3.00;99.90;;;;;;5018526;28;20881;-82
2020/12/05 11:58:17;;;;;;;22.07;12.20;;;3.00;99.90;;;;;;5054896;28;20369;-83
2020/12/05 12:00:43;;;;;;;16.63;11.47;;;2.90;99.90;;;;;;5023311;28;20189;-82
2020/12/05 12:03:09;;;;;;;22.80;11.47;;;3.00;99.90;;;;;;5037412;28;20407;-79
2020/12/05 12:05:35;;;;;;;17.00;11.87;;;3.00;99.90;;;;;;5038564;28;20389;-82
2020/12/05 12:08:01;;;;;;;26.60;14.07;;;3.00;99.90;;;;;;5055384;28;20394;-82
2020/12/05 12:10:30;;;;;;;17.10;12.60;;;3.10;99.90;;;;;;5022694;28;20249;-81
2020/12/05 12:12:56;;;;;;;37.77;11.90;;;3.20;99.90;;;;;;5049600;28;20405;-79
2020/12/05 12:15:22;;;;;;;20.50;11.20;;;3.20;99.90;;;;;;5088849;28;20375;-85
2020/12/05 12:17:48;;;;;;;13.77;10.07;;;3.20;99.90;;;;;;5091208;28;20434;-86
2020/12/05 12:20:18;;;;;;;16.10;10.93;;;3.10;99.90;;;;;;5029382;28;20211;-83
2020/12/05 12:22:46;;;;;;;19.70;13.50;;;3.20;99.90;;;;;;5044034;28;20419;-84
2020/12/05 12:25:12;;;;;;;17.20;10.80;;;3.20;99.90;;;;;;5028588;28;20458;-79
2020/12/05 12:27:38;;;;;;;18.93;12.67;;;3.20;99.90;;;;;;5014048;28;20446;-80
2020/12/05 12:30:04;;;;;;;18.87;12.93;;;3.20;99.90;;;;;;5026592;28;20395;-84
2020/12/05 12:32:33;;;;;;;19.20;12.90;;;3.10;99.90;;;;;;4989739;28;20669;-84
2020/12/05 12:34:59;;;;;;;27.87;13.17;;;3.10;99.90;;;;;;5006790;28;20452;-84
2020/12/05 12:37:28;;;;;;;21.13;13.20;;;3.00;99.90;;;;;;5007526;28;20189;-86
2020/12/05 12:39:54;;;;;;;24.60;11.97;;;3.00;99.90;;;;;;4973377;28;20217;-84
2020/12/05 12:42:19;;;;;;;19.03;12.53;;;3.00;99.90;;;;;;5005330;28;20380;-86
2020/12/05 12:44:45;;;;;;;17.07;12.10;;;3.00;99.90;;;;;;5004199;28;20210;-85
2020/12/05 12:47:25;;;;;;;22.87;13.60;;;3.10;99.90;;;;;;5006488;28;20282;-84
2020/12/05 12:49:50;;;;;;;22.17;13.27;;;3.10;99.90;;;;;;5003928;28;20154;-86